Time;durP1;ratioP1;P1;durP2;ratioP2;P2;SDS_P1;SDS_P2;PMS_P1;PMS_P2;Temp;Humidity;BMP_temperature;BMP_pressure;BME280_temperature;BME280_humidity;BME280_pressure;Samples;Min_cycle;Max_cycle;Signal;HPM_P1;HPM_P2
2021/01/12 00:01:24;;;;;;;26.00;11.00;;;;;;;0.82;69.27;100745.19;5013788;28;20095;-66
2021/01/12 00:04:09;;;;;;;30.55;13.60;;;;;;;0.85;68.68;100736.34;5013541;28;20072;-64
2021/01/12 00:06:52;;;;;;;;;;;;;;;0.86;69.39;100722.28;5013923;28;20053;-65
2021/01/12 00:09:37;;;;;;;33.47;15.00;;;;;;;0.87;69.37;100756.34;5013472;28;19920;-65
2021/01/12 00:12:22;;;;;;;22.67;11.68;;;;;;;0.90;69.58;100729.94;5014110;28;20045;-65
2021/01/12 00:15:06;;;;;;;27.15;14.07;;;;;;;0.87;68.94;100739.75;4999549;28;20061;-65
2021/01/12 00:17:50;;;;;;;23.33;12.43;;;;;;;0.90;70.31;100718.59;5013243;28;20561;-65
2021/01/12 00:20:35;;;;;;;26.33;11.60;;;;;;;0.85;69.87;100729.31;5013308;28;20606;-65
2021/01/12 00:23:19;;;;;;;24.88;12.40;;;;;;;0.84;70.34;100709.22;5013852;28;20473;-65
2021/01/12 00:26:09;;;;;;;19.95;9.50;;;;;;;0.82;71.00;100711.09;5013898;28;20061;-65
2021/01/12 00:28:59;;;;;;;22.98;10.50;;;;;;;0.79;71.32;100711.25;5013837;28;20123;-65
2021/01/12 00:31:44;;;;;;;29.52;15.00;;;;;;;0.81;71.77;100695.41;5013047;28;20149;-66
2021/01/12 00:34:27;;;;;;;24.67;13.25;;;;;;;0.82;72.10;100690.09;5012925;28;20080;-65
2021/01/12 00:37:18;;;;;;;25.52;12.50;;;;;;;0.81;72.10;100688.41;5013718;28;20104;-65
2021/01/12 00:40:04;;;;;;;29.90;16.25;;;;;;;0.78;72.61;100696.44;5012694;28;20049;-66
2021/01/12 00:42:50;;;;;;;29.58;15.90;;;;;;;0.80;72.77;100681.44;5013570;28;20048;-66
2021/01/12 00:45:33;;;;;;;29.52;15.85;;;;;;;0.77;72.96;100678.13;5013879;28;20049;-65
2021/01/12 00:48:18;;;;;;;20.38;10.07;;;;;;;0.77;73.28;100676.34;5013623;28;20141;-65
2021/01/12 00:51:02;;;;;;;16.23;8.63;;;;;;;0.78;73.20;100657.06;5012825;28;20048;-65
2021/01/12 00:53:46;;;;;;;;;;;;;;;0.74;73.66;100652.88;5027176;28;20164;-65
2021/01/12 00:56:30;;;;;;;22.90;11.77;;;;;;;0.74;74.87;100676.47;5013504;28;19920;-65
2021/01/12 00:59:14;;;;;;;18.48;10.32;;;;;;;0.76;74.77;100658.88;5012684;28;20290;-65
2021/01/12 01:02:08;;;;;;;28.33;14.32;;;;;;;0.75;75.07;100659.81;5012638;28;20096;-65
2021/01/12 01:04:52;;;;;;;24.10;10.80;;;;;;;0.77;74.78;100660.59;5012421;28;20048;-65
2021/01/12 01:07:36;;;;;;;26.25;15.32;;;;;;;0.79;74.79;100647.41;5013520;28;20069;-65
2021/01/12 01:10:20;;;;;;;28.55;16.25;;;;;;;0.83;74.40;100660.28;5001027;28;20141;-66
2021/01/12 01:13:04;;;;;;;;;;;;;;;0.84;74.61;100664.63;5002860;28;20068;-64
2021/01/12 01:15:48;;;;;;;31.58;16.10;;;;;;;0.91;74.06;100684.41;5002781;28;19924;-65
2021/01/12 01:18:33;;;;;;;28.13;14.75;;;;;;;0.94;73.99;100684.25;5002698;28;20068;-65
2021/01/12 01:21:16;;;;;;;27.60;14.55;;;;;;;1.00;73.60;100697.09;5016230;28;20053;-66
2021/01/12 01:24:01;;;;;;;;;;;;;;;0.94;73.37;100692.13;5017938;28;20056;-65
2021/01/12 01:26:44;;;;;;;18.47;9.00;;;;;;;0.96;73.33;100682.38;5016494;28;19975;-65
2021/01/12 01:29:29;;;;;;;;;;;;;;;0.93;74.27;100698.31;5017526;28;20387;-65
2021/01/12 01:32:13;;;;;;;27.75;15.25;;;;;;;0.95;74.19;100672.81;5017047;28;19928;-65
2021/01/12 01:34:57;;;;;;;;;;;;;;;0.90;74.64;100693.22;5017702;28;20104;-63
2021/01/12 01:37:41;;;;;;;28.27;14.55;;;;;;;0.86;75.26;100668.00;5017196;28;19920;-65
2021/01/12 01:40:25;;;;;;;26.25;14.43;;;;;;;0.84;75.55;100677.75;5017103;28;20069;-66
2021/01/12 01:43:15;;;;;;;26.52;13.77;;;;;;;0.78;76.04;100659.69;5016860;28;20104;-66
2021/01/12 01:45:58;;;;;;;23.80;11.68;;;;;;;0.75;76.55;100666.84;5016090;28;20100;-65
2021/01/12 01:48:42;;;;;;;25.50;9.98;;;;;;;0.76;76.42;100664.13;5016791;28;20509;-65
2021/01/12 01:51:26;;;;;;;28.50;15.80;;;;;;;0.74;76.36;100642.38;5016774;28;20553;-66
2021/01/12 01:54:11;;;;;;;25.80;12.93;;;;;;;0.75;76.13;100644.06;5016924;28;20406;-65
2021/01/12 01:56:55;;;;;;;28.20;14.60;;;;;;;0.76;75.98;100640.50;5015708;28;20048;-66
2021/01/12 01:59:39;;;;;;;;;;;;;;;0.74;75.85;100634.50;5017244;28;20045;-65
2021/01/12 02:02:23;;;;;;;28.90;14.87;;;;;;;0.73;76.32;100631.97;5016504;28;19924;-64
2021/01/12 02:05:09;;;;;;;;;;;;;;;0.72;76.32;100620.59;5016893;28;20053;-65
2021/01/12 02:07:55;;;;;;;26.05;12.40;;;;;;;0.72;76.32;100615.34;5015774;28;19944;-65
2021/01/12 02:10:42;;;;;;;16.45;9.95;;;;;;;0.74;76.27;100616.13;5015665;28;20506;-65
2021/01/12 02:13:28;;;;;;;21.20;11.80;;;;;;;0.75;76.00;100678.19;5029479;28;20048;-65
2021/01/12 02:16:13;;;;;;;17.27;9.35;;;;;;;0.72;75.20;100604.88;5016572;28;20514;-65
2021/01/12 02:18:57;;;;;;;21.85;10.40;;;;;;;0.75;75.23;100602.09;5015126;28;20560;-65
2021/01/12 02:21:45;;;;;;;26.08;13.88;;;;;;;0.79;74.83;100603.66;5014472;28;20048;-65
2021/01/12 02:24:31;;;;;;;27.65;14.20;;;;;;;0.77;74.44;100591.53;5001361;28;20048;-65
2021/01/12 02:27:24;;;;;;;26.38;14.18;;;;;;;0.81;74.89;100586.03;5015169;28;20589;-65
2021/01/12 02:30:09;;;;;;;27.85;11.70;;;;;;;0.86;73.30;100589.28;5015350;28;20052;-65
2021/01/12 02:32:54;;;;;;;26.33;14.45;;;;;;;0.90;73.32;100589.97;5014902;28;20049;-66
2021/01/12 02:35:40;;;;;;;22.48;11.95;;;;;;;0.97;72.39;100579.13;5015915;28;20058;-66
2021/01/12 02:38:24;;;;;;;27.83;15.02;;;;;;;0.97;72.44;100563.38;5015092;28;20044;-66
2021/01/12 02:41:12;;;;;;;18.40;8.82;;;;;;;1.04;71.86;100580.50;5014860;28;20133;-65
2021/01/12 02:43:56;;;;;;;17.50;10.60;;;;;;;1.02;71.98;100571.00;5015756;28;20107;-65
2021/01/12 02:46:41;;;;;;;27.90;14.88;;;;;;;1.01;72.05;100579.78;5014772;28;20101;-65
2021/01/12 02:49:25;;;;;;;26.17;13.93;;;;;;;1.05;71.70;100586.59;5015909;28;20092;-64
2021/01/12 02:52:13;;;;;;;26.85;14.27;;;;;;;1.03;71.84;100568.28;5014613;28;20053;-65
2021/01/12 02:54:57;;;;;;;26.02;14.93;;;;;;;1.04;71.98;100564.75;5014582;28;20057;-65
2021/01/12 02:57:42;;;;;;;27.80;13.65;;;;;;;1.04;71.66;100549.00;5015694;28;20095;-65
2021/01/12 03:00:26;;;;;;;28.88;15.90;;;;;;;1.02;71.93;100560.47;5014758;28;20061;-65
2021/01/12 03:03:10;;;;;;;22.92;14.07;;;;;;;1.05;71.75;100549.84;5015450;28;20451;-65
2021/01/12 03:05:54;;;;;;;25.85;12.73;;;;;;;1.08;71.79;100568.06;5015640;28;20052;-65
2021/01/12 03:08:38;;;;;;;29.27;13.93;;;;;;;1.03;71.50;100549.09;5015322;28;20401;-65
2021/01/12 03:11:22;;;;;;;24.52;12.88;;;;;;;1.06;71.61;100547.13;5014490;28;20095;-65
2021/01/12 03:14:06;;;;;;;18.77;8.15;;;;;;;1.07;72.04;100540.94;5014506;28;20048;-66
2021/01/12 03:16:51;;;;;;;26.27;10.77;;;;;;;1.07;71.33;100559.31;5014242;28;20107;-66
2021/01/12 03:19:36;;;;;;;21.63;10.10;;;;;;;1.05;71.30;100540.19;5015311;28;20099;-66
2021/01/12 03:22:20;;;;;;;20.80;10.82;;;;;;;1.05;71.49;100534.94;5014022;28;20068;-66
2021/01/12 03:25:04;;;;;;;;;;;;;;;1.05;72.01;100523.59;5015581;28;20092;-66
2021/01/12 03:27:48;;;;;;;19.27;9.48;;;;;;;1.05;71.24;100534.94;5014998;28;19921;-66
2021/01/12 03:30:32;;;;;;;;;;;;;;;1.04;71.42;100516.66;5028349;28;20096;-65
2021/01/12 03:33:16;;;;;;;19.20;9.33;;;;;;;1.04;71.28;100530.63;5012838;28;19939;-65
2021/01/12 03:36:00;;;;;;;;;;;;;;;1.07;71.89;100522.56;5028543;28;20513;-65
2021/01/12 03:38:44;;;;;;;27.38;12.70;;;;;;;1.05;72.17;100513.94;5014006;28;20385;-64
2021/01/12 03:41:31;;;;;;;16.42;7.88;;;;;;;1.07;72.16;100512.06;5013602;28;20056;-64
2021/01/12 03:44:16;;;;;;;21.38;9.57;;;;;;;1.11;71.74;100518.00;5014605;28;20052;-64
2021/01/12 03:46:59;;;;;;;;;;;;;;;1.14;71.91;100492.44;5015200;28;20513;-64
2021/01/12 03:49:43;;;;;;;21.73;11.05;;;;;;;1.16;72.18;100485.34;5013862;28;20023;-64
2021/01/12 03:52:27;;;;;;;21.85;10.13;;;;;;;1.20;72.45;100481.63;5013320;28;20045;-64
2021/01/12 03:55:11;;;;;;;22.45;12.32;;;;;;;1.17;72.99;100499.31;5014014;28;20558;-65
2021/01/12 03:57:55;;;;;;;24.02;13.25;;;;;;;1.17;73.62;100466.03;5013564;28;20534;-65
2021/01/12 04:00:39;;;;;;;22.08;12.32;;;;;;;1.17;74.33;100455.53;5013658;28;20510;-64
2021/01/12 04:03:23;;;;;;;;;;;;;;;1.16;75.01;100480.09;5013650;28;20096;-64
2021/01/12 04:06:16;;;;;;;20.88;10.52;;;;;;;1.16;74.71;100495.84;5013529;28;19920;-65
2021/01/12 04:09:00;;;;;;;26.92;13.55;;;;;;;1.15;75.35;100457.38;5014222;28;20045;-65
2021/01/12 04:11:46;;;;;;;27.65;14.90;;;;;;;1.16;75.10;100432.81;4999249;28;20148;-65
2021/01/12 04:14:29;;;;;;;23.63;13.15;;;;;;;1.19;75.24;100435.31;4999531;28;20048;-65
2021/01/12 04:17:14;;;;;;;25.10;14.18;;;;;;;1.19;76.47;100432.69;5014093;28;20133;-65
2021/01/12 04:19:58;;;;;;;22.77;11.60;;;;;;;1.14;76.79;100439.94;5014290;28;20168;-64
2021/01/12 04:22:42;;;;;;;22.80;9.60;;;;;;;1.12;77.51;100441.81;5014169;28;20052;-65
2021/01/12 04:25:26;;;;;;;28.13;14.63;;;;;;;1.10;79.41;100414.78;5027210;28;20486;-65
2021/01/12 04:28:09;;;;;;;;;;;;;;;1.03;80.04;100426.53;5013624;28;20044;-64
2021/01/12 04:30:54;;;;;;;23.00;10.27;;;;;;;0.98;82.09;100428.56;5013830;28;19964;-64
2021/01/12 04:33:37;;;;;;;21.50;11.07;;;;;;;0.87;83.91;100409.06;4998832;28;20275;-64
2021/01/12 04:36:21;;;;;;;19.65;10.23;;;;;;;0.81;85.51;100394.47;4999216;28;20053;-65
2021/01/12 04:39:05;;;;;;;25.35;11.13;;;;;;;0.77;87.78;100392.97;5012671;28;20478;-65
2021/01/12 04:41:49;;;;;;;22.70;11.10;;;;;;;0.70;88.73;100398.59;5013687;28;20518;-63
2021/01/12 04:44:33;;;;;;;;;;;;;;;0.70;89.81;100396.81;5013108;28;20092;-65
2021/01/12 04:47:17;;;;;;;20.97;10.07;;;;;;;0.68;89.58;100377.69;5012924;28;19921;-65
2021/01/12 04:50:03;;;;;;;27.10;10.85;;;;;;;0.69;90.20;100368.88;5012646;28;20474;-64
2021/01/12 04:52:50;;;;;;;22.98;9.02;;;;;;;0.70;90.73;100374.97;5014722;28;20088;-65
2021/01/12 04:55:34;;;;;;;23.60;11.30;;;;;;;0.69;91.34;100347.03;5013853;28;20556;-65
2021/01/12 04:58:18;;;;;;;;;;;;;;;0.69;91.83;100326.06;5014136;28;20069;-65
2021/01/12 05:01:07;;;;;;;21.33;8.83;;;;;;;0.71;92.06;100343.41;5012832;28;19924;-65
2021/01/12 05:03:53;;;;;;;21.48;10.35;;;;;;;0.70;92.43;100344.34;5013708;28;20072;-65
2021/01/12 05:06:38;;;;;;;28.08;11.57;;;;;;;0.67;93.62;100344.53;5012691;28;20145;-65
2021/01/12 05:09:22;;;;;;;25.70;12.02;;;;;;;0.67;94.86;100317.41;5012835;28;20053;-65
2021/01/12 05:12:07;;;;;;;31.58;16.40;;;;;;;0.67;95.93;100334.03;5013394;28;20096;-65
2021/01/12 05:14:53;;;;;;;17.52;7.18;;;;;;;0.67;96.48;100334.03;5012610;28;20157;-65
2021/01/12 05:17:37;;;;;;;31.52;15.40;;;;;;;0.67;97.94;100323.53;5013224;28;20053;-64
2021/01/12 05:20:24;;;;;;;28.10;13.02;;;;;;;0.63;99.10;100342.97;5012796;28;20052;-65
2021/01/12 05:23:13;;;;;;;21.90;11.20;;;;;;;0.61;100.00;100329.09;4998784;28;20056;-65
2021/01/12 05:26:01;;;;;;;29.75;13.30;;;;;;;0.54;100.00;100317.22;5012507;28;20041;-65
2021/01/12 05:28:46;;;;;;;29.20;14.82;;;;;;;0.52;100.00;100334.81;5013153;28;20056;-65
2021/01/12 05:31:31;;;;;;;34.05;15.52;;;;;;;0.51;100.00;100322.63;5013355;28;20045;-65
2021/01/12 05:34:18;;;;;;;28.60;15.48;;;;;;;0.50;100.00;100323.56;5013078;28;20049;-65
2021/01/12 05:37:03;;;;;;;30.08;12.25;;;;;;;0.53;100.00;100320.78;5013099;28;20088;-65
2021/01/12 05:39:47;;;;;;;23.63;10.10;;;;;;;0.57;100.00;100322.31;5013002;28;20049;-65
2021/01/12 05:42:31;;;;;;;;;;;;;;;0.62;100.00;100312.41;5012764;28;20056;-64
2021/01/12 05:45:15;;;;;;;22.52;10.07;;;;;;;0.67;100.00;100348.91;5012340;28;19924;-65
2021/01/12 05:47:59;;;;;;;28.05;14.38;;;;;;;0.69;100.00;100305.06;4998308;28;20116;-65
2021/01/12 05:50:43;;;;;;;27.08;10.63;;;;;;;0.71;100.00;100309.31;5013306;28;20099;-65
2021/01/12 05:53:54;;;;;;;25.02;13.18;;;;;;;0.72;100.00;100300.50;5011824;28;20110;-65
2021/01/12 05:56:42;;;;;;;18.75;9.60;;;;;;;0.74;100.00;100303.88;5013927;28;20049;-65
2021/01/12 05:59:27;;;;;;;31.00;16.40;;;;;;;0.71;100.00;100290.94;5016553;28;20198;-65
2021/01/12 06:02:20;;;;;;;25.38;12.48;;;;;;;0.78;100.00;100280.97;5015748;28;20427;-65
2021/01/12 06:05:05;;;;;;;29.17;14.27;;;;;;;0.79;100.00;100275.66;5016830;28;20104;-64
2021/01/12 06:07:49;;;;;;;29.58;15.00;;;;;;;0.80;100.00;100281.72;5015758;28;20133;-64
2021/01/12 06:10:38;;;;;;;27.75;11.02;;;;;;;0.81;100.00;100272.91;5016392;28;20065;-64
2021/01/12 06:13:30;;;;;;;30.55;13.93;;;;;;;0.81;100.00;100304.41;5016341;28;20053;-65
2021/01/12 06:16:18;;;;;;;32.55;16.75;;;;;;;0.79;100.00;100270.41;5015594;28;20045;-65
2021/01/12 06:19:04;;;;;;;32.60;14.38;;;;;;;0.81;100.00;100265.91;5015181;28;20499;-65
2021/01/12 06:21:54;;;;;;;27.55;11.90;;;;;;;0.78;100.00;100263.47;5016103;28;20426;-65
2021/01/12 06:24:38;;;;;;;30.25;15.35;;;;;;;0.80;100.00;100251.09;5016146;28;20104;-65
2021/01/12 06:27:25;;;;;;;;;;;;;;;0.80;100.00;100258.97;5016527;28;20044;-64
2021/01/12 06:30:10;;;;;;;18.35;8.38;;;;;;;0.80;100.00;100265.97;5016225;28;19919;-65
2021/01/12 06:32:55;;;;;;;18.85;9.35;;;;;;;0.77;100.00;100240.78;5029002;28;20406;-65
2021/01/12 06:35:40;;;;;;;35.13;16.73;;;;;;;0.79;100.00;100233.66;5015240;28;20058;-65
2021/01/12 06:38:25;;;;;;;27.05;12.85;;;;;;;0.79;100.00;100254.66;5015137;28;20045;-64
2021/01/12 06:41:10;;;;;;;32.40;14.77;;;;;;;0.79;100.00;100241.53;5015825;28;20072;-65
2021/01/12 06:44:04;;;;;;;23.73;11.52;;;;;;;0.81;100.00;100242.28;5014788;28;20136;-65
2021/01/12 06:46:52;;;;;;;27.95;14.15;;;;;;;0.82;100.00;100248.41;5015754;28;20088;-65
2021/01/12 06:49:37;;;;;;;36.13;16.63;;;;;;;0.82;100.00;100240.53;5015959;28;20494;-64
2021/01/12 06:52:23;;;;;;;36.72;17.92;;;;;;;0.83;100.00;100235.16;5015638;28;20147;-65
2021/01/12 06:55:08;;;;;;;35.47;17.98;;;;;;;0.85;100.00;100233.31;5015571;28;20091;-64
2021/01/12 06:57:58;;;;;;;29.08;15.30;;;;;;;0.86;100.00;100242.03;5014798;28;20080;-64
2021/01/12 07:00:47;;;;;;;23.50;11.57;;;;;;;0.87;100.00;100210.47;5015455;28;20417;-64
2021/01/12 07:03:32;;;;;;;25.58;11.70;;;;;;;0.87;100.00;100225.34;5014574;28;20107;-64
2021/01/12 07:06:24;;;;;;;21.75;9.48;;;;;;;0.86;100.00;100218.41;5015665;28;20052;-64
2021/01/12 07:09:07;;;;;;;28.20;14.52;;;;;;;0.89;100.00;100208.59;5015361;28;20076;-64
2021/01/12 07:12:13;;;;;;;;;;;;;;;0.85;100.00;100235.94;5000651;28;20104;-63
2021/01/12 07:15:01;;;;;;;30.52;15.98;;;;;;;0.85;100.00;100229.84;5015413;28;19920;-63
2021/01/12 07:17:53;;;;;;;21.88;10.60;;;;;;;0.83;100.00;100229.91;5014053;28;20061;-64
2021/01/12 07:20:39;;;;;;;29.83;13.75;;;;;;;0.84;100.00;100202.75;5014127;28;20056;-64
2021/01/12 07:23:23;;;;;;;34.05;16.27;;;;;;;0.85;100.00;100207.06;5014188;28;20509;-64
2021/01/12 07:26:07;;;;;;;;;;;;;;;0.89;100.00;100202.50;5015419;28;20049;-64
2021/01/12 07:28:52;;;;;;;35.77;17.00;;;;;;;0.88;100.00;100204.28;5015159;28;19921;-64
2021/01/12 07:31:36;;;;;;;30.17;15.20;;;;;;;0.92;100.00;100203.19;5013777;28;20084;-64
2021/01/12 07:34:20;;;;;;;31.00;15.10;;;;;;;0.93;100.00;100209.28;5013872;28;20084;-64
2021/01/12 07:37:05;;;;;;;33.08;14.85;;;;;;;0.92;100.00;100192.69;5014090;28;20052;-64
2021/01/12 07:39:49;;;;;;;34.35;15.35;;;;;;;0.93;100.00;100198.78;5014947;28;20049;-64
2021/01/12 07:42:34;;;;;;;28.83;12.23;;;;;;;0.93;100.00;100210.13;5014609;28;20478;-65
2021/01/12 07:45:21;;;;;;;23.55;11.75;;;;;;;0.91;100.00;100201.47;5013957;28;20108;-64
2021/01/12 07:48:06;;;;;;;27.75;14.95;;;;;;;0.92;100.00;100215.44;5013622;28;20129;-63
2021/01/12 07:50:51;;;;;;;25.63;11.10;;;;;;;0.88;100.00;100201.66;5013325;28;20076;-64
2021/01/12 07:53:36;;;;;;;33.13;15.75;;;;;;;0.88;100.00;100201.66;5014308;28;20061;-64
2021/01/12 07:56:21;;;;;;;30.58;14.50;;;;;;;0.86;100.00;100190.38;5014429;28;20107;-64
2021/01/12 07:59:05;;;;;;;33.25;12.05;;;;;;;0.87;100.00;100181.59;5014419;28;20052;-63
2021/01/12 08:01:49;;;;;;;37.38;16.58;;;;;;;0.86;100.00;100177.25;4999403;28;20056;-62
2021/01/12 08:04:33;;;;;;;31.27;10.63;;;;;;;0.86;100.00;100195.63;5014343;28;20056;-64
2021/01/12 08:07:24;;;;;;;25.15;11.25;;;;;;;0.87;100.00;100181.59;5013523;28;20129;-64
2021/01/12 08:10:09;;;;;;;28.52;12.27;;;;;;;0.88;100.00;100178.03;5014183;28;20451;-63
2021/01/12 08:13:03;;;;;;;22.17;11.48;;;;;;;0.87;100.00;100165.00;5013091;28;20514;-64
2021/01/12 08:15:48;;;;;;;38.38;19.35;;;;;;;0.85;100.00;100167.69;5014359;28;20514;-62
2021/01/12 08:18:33;;;;;;;34.00;10.50;;;;;;;0.85;100.00;100159.81;5013945;28;20191;-64
2021/01/12 08:21:17;;;;;;;25.85;13.52;;;;;;;0.86;100.00;100148.41;5014061;28;20099;-65
2021/01/12 08:24:01;;;;;;;33.75;15.02;;;;;;;0.84;100.00;100155.50;5014225;28;20111;-65
2021/01/12 08:26:45;;;;;;;33.70;15.68;;;;;;;0.84;100.00;100171.25;5012978;28;20084;-65
2021/01/12 08:29:32;;;;;;;30.63;14.32;;;;;;;0.83;100.00;100161.69;5013910;28;20072;-65
2021/01/12 08:32:20;;;;;;;29.08;12.18;;;;;;;0.85;100.00;100180.00;5012791;28;20049;-65
2021/01/12 08:35:07;;;;;;;29.70;13.73;;;;;;;0.82;100.00;100160.00;5013184;28;20100;-65
2021/01/12 08:37:52;;;;;;;26.52;12.70;;;;;;;0.84;100.00;100154.69;5013058;28;20132;-68
2021/01/12 08:40:35;;;;;;;28.95;11.82;;;;;;;0.87;100.00;100142.25;5012834;28;20568;-68
2021/01/12 08:43:20;;;;;;;21.73;10.88;;;;;;;0.85;100.00;100175.56;5013520;28;20188;-69
2021/01/12 08:46:07;;;;;;;27.60;12.63;;;;;;;0.83;100.00;100138.09;5013884;28;20049;-68
2021/01/12 08:48:52;;;;;;;21.27;10.93;;;;;;;0.90;100.00;100141.19;5013889;28;20040;-68
2021/01/12 08:51:37;;;;;;;28.08;13.95;;;;;;;0.88;100.00;100133.44;5013619;28;20513;-69
2021/01/12 08:54:22;;;;;;;20.58;9.18;;;;;;;0.86;100.00;100137.91;5014106;28;20111;-68
2021/01/12 08:57:06;;;;;;;26.75;13.82;;;;;;;0.88;100.00;100183.28;5013463;28;20235;-69
2021/01/12 08:59:50;;;;;;;24.15;11.40;;;;;;;0.87;100.00;100131.75;5012402;28;20119;-68
2021/01/12 09:02:34;;;;;;;35.17;16.30;;;;;;;0.86;100.00;100129.19;5013570;28;20145;-69
2021/01/12 09:05:18;;;;;;;29.23;14.02;;;;;;;0.90;100.00;100128.06;5013732;28;20494;-69
2021/01/12 09:08:02;;;;;;;;;;;;;;;0.87;100.00;100147.50;5014073;28;20111;-70
2021/01/12 09:10:46;;;;;;;21.27;10.83;;;;;;;0.90;100.00;100157.81;5012615;28;20432;-70
2021/01/12 09:13:30;;;;;;;22.73;11.63;;;;;;;0.93;100.00;100128.75;5012572;28;20136;-70
2021/01/12 09:16:18;;;;;;;21.92;10.73;;;;;;;0.94;100.00;100147.97;5012634;28;20064;-70
2021/01/12 09:19:38;;;;;;;17.95;9.27;;;;;;;0.94;100.00;100151.44;5013526;28;20402;-70
2021/01/12 09:22:28;;;;;;;19.33;10.32;;;;;;;0.93;100.00;100147.13;5012881;28;20418;-69
2021/01/12 09:25:23;;;;;;;16.60;9.18;;;;;;;0.92;100.00;100150.69;5012357;28;20081;-69
2021/01/12 09:28:11;;;;;;;24.52;9.90;;;;;;;0.93;100.00;100147.13;5013728;28;20145;-70
2021/01/12 09:31:05;;;;;;;18.20;8.68;;;;;;;0.96;100.00;100146.13;5026171;28;20052;-69
2021/01/12 09:33:51;;;;;;;19.10;8.60;;;;;;;0.93;100.00;100162.88;5030035;28;20048;-70
2021/01/12 09:36:35;;;;;;;24.55;12.57;;;;;;;0.92;100.00;100155.06;5017284;28;20048;-69
2021/01/12 09:39:20;;;;;;;17.30;9.10;;;;;;;0.96;100.00;100165.31;5016880;28;20100;-69
2021/01/12 09:42:03;;;;;;;20.67;12.00;;;;;;;0.93;100.00;100139.25;5017121;28;20108;-70
2021/01/12 09:44:48;;;;;;;18.77;10.10;;;;;;;0.98;100.00;100167.88;5017188;28;20136;-70
2021/01/12 09:47:34;;;;;;;17.33;8.52;;;;;;;0.93;100.00;100152.38;5016073;28;20052;-69
2021/01/12 09:50:18;;;;;;;16.73;8.10;;;;;;;0.94;100.00;100224.09;5015822;28;20045;-69
2021/01/12 09:53:02;;;;;;;17.67;9.52;;;;;;;0.90;100.00;100157.81;5016056;28;20056;-68
2021/01/12 09:55:46;;;;;;;18.90;9.20;;;;;;;0.86;100.00;100148.41;5016932;28;20426;-67
2021/01/12 09:58:30;;;;;;;15.70;7.90;;;;;;;0.86;100.00;100137.91;5016849;28;20129;-68
2021/01/12 10:01:14;;;;;;;14.75;7.88;;;;;;;0.89;100.00;100139.50;5029550;28;20105;-67
2021/01/12 10:03:58;;;;;;;13.70;7.38;;;;;;;0.87;100.00;100137.00;5016598;28;20068;-68
2021/01/12 10:06:42;;;;;;;14.32;7.65;;;;;;;0.88;100.00;100138.69;5016501;28;20052;-67
2021/01/12 10:09:27;;;;;;;15.25;8.73;;;;;;;0.88;100.00;100133.44;5029544;28;20056;-67
2021/01/12 10:12:11;;;;;;;17.80;9.32;;;;;;;0.94;100.00;100125.19;5015473;28;20049;-69
2021/01/12 10:14:55;;;;;;;16.30;9.05;;;;;;;0.92;100.00;100140.19;5016597;28;20081;-68
2021/01/12 10:17:39;;;;;;;9.27;6.03;;;;;;;0.96;100.00;100154.81;5016295;28;20069;-67
2021/01/12 10:20:24;;;;;;;13.63;7.78;;;;;;;0.97;100.00;100124.19;5016545;28;20461;-67
2021/01/12 10:23:07;;;;;;;;;;;;;;;0.98;100.00;100118.84;5015479;28;20058;-68
2021/01/12 10:25:52;;;;;;;10.43;6.15;;;;;;;0.99;100.00;100110.03;5015503;28;19920;-68
2021/01/12 10:28:36;;;;;;;15.02;8.13;;;;;;;1.02;100.00;100112.47;5029003;28;20096;-68
2021/01/12 10:31:20;;;;;;;;;;;;;;;1.04;100.00;100128.97;5016391;28;20478;-68
2021/01/12 10:34:04;;;;;;;9.70;6.20;;;;;;;1.03;100.00;100116.78;5016228;28;20381;-68
2021/01/12 10:36:49;;;;;;;6.90;4.28;;;;;;;1.04;100.00;100117.66;5028920;28;20465;-68
2021/01/12 10:39:34;;;;;;;11.65;6.28;;;;;;;1.07;100.00;100104.34;5015115;28;20115;-69
2021/01/12 10:42:18;;;;;;;10.13;5.72;;;;;;;1.07;100.00;100101.72;5015178;28;20068;-68
2021/01/12 10:45:03;;;;;;;7.55;4.07;;;;;;;1.11;100.00;100118.97;5015139;28;20107;-69
2021/01/12 10:47:48;;;;;;;8.13;4.47;;;;;;;1.11;100.00;100106.69;5028617;28;20057;-69
2021/01/12 10:50:31;;;;;;;9.60;5.15;;;;;;;1.12;100.00;100079.50;5001114;28;20529;-69
2021/01/12 10:53:15;;;;;;;8.55;4.93;;;;;;;1.15;100.00;100092.44;5028177;23;20052;-66
2021/01/12 10:56:01;;;;;;;5.32;3.22;;;;;;;1.17;100.00;100045.13;5014661;28;20104;-66
2021/01/12 10:58:45;;;;;;;6.68;3.38;;;;;;;1.18;100.00;100076.53;5015436;28;20065;-68
2021/01/12 11:01:31;;;;;;;8.10;4.93;;;;;;;1.19;100.00;100072.97;5014961;28;20188;-68
2021/01/12 11:04:14;;;;;;;8.40;4.93;;;;;;;1.20;100.00;100061.53;4994833;28;20415;-67
2021/01/12 11:06:59;;;;;;;7.68;4.28;;;;;;;1.21;100.00;100052.72;4995013;28;20134;-67
2021/01/12 11:09:44;;;;;;;6.75;4.03;;;;;;;1.21;100.00;100084.22;4994860;28;20046;-67
2021/01/12 11:12:29;;;;;;;5.90;3.63;;;;;;;1.22;100.00;100057.03;4995824;28;20065;-67
2021/01/12 11:15:17;;;;;;;9.18;5.35;;;;;;;1.23;100.00;100050.00;5009064;28;20622;-67
2021/01/12 11:18:01;;;;;;;6.40;2.53;;;;;;;1.26;100.00;100028.81;4995437;28;20069;-66
2021/01/12 11:20:46;;;;;;;5.95;3.53;;;;;;;1.26;100.00;100047.19;4994854;28;20053;-66
2021/01/12 11:23:30;;;;;;;6.38;4.07;;;;;;;1.30;100.00;100041.66;4995687;28;20053;-66
2021/01/12 11:26:14;;;;;;;7.53;3.38;;;;;;;1.33;100.00;100036.22;4994413;28;20104;-66
2021/01/12 11:28:58;;;;;;;6.18;3.22;;;;;;;1.33;100.00;100033.59;4994637;28;20092;-64
2021/01/12 11:31:43;;;;;;;8.18;4.93;;;;;;;1.36;100.00;100022.91;4995552;28;20199;-65
2021/01/12 11:34:27;;;;;;;8.27;4.60;;;;;;;1.39;100.00;100062.13;4995443;28;20506;-65
2021/01/12 11:37:11;;;;;;;4.78;3.47;;;;;;;1.39;100.00;100025.38;4994467;28;20049;-64
2021/01/12 11:39:58;;;;;;;3.33;2.28;;;;;;;1.36;100.00;100020.28;4994106;28;20096;-64
2021/01/12 11:42:43;;;;;;;7.25;4.03;;;;;;;1.39;100.00;100020.09;4994987;28;20053;-64
2021/01/12 11:45:27;;;;;;;4.55;2.60;;;;;;;1.40;100.00;100006.03;4994331;28;20113;-64
2021/01/12 11:48:13;;;;;;;5.63;3.08;;;;;;;1.38;100.00;100007.91;4994270;28;20061;-64
2021/01/12 11:50:57;;;;;;;5.28;2.80;;;;;;;1.35;100.00;100008.09;4994912;28;20053;-61
2021/01/12 11:53:41;;;;;;;5.32;2.75;;;;;;;1.33;100.00;100009.09;4993181;28;20065;-63
2021/01/12 11:56:25;;;;;;;4.35;3.00;;;;;;;1.27;100.00;100015.56;5007728;28;20053;-64
2021/01/12 11:59:09;;;;;;;5.55;2.63;;;;;;;1.26;100.00;100013.88;4993958;28;20053;-63
2021/01/12 12:01:54;;;;;;;5.28;2.78;;;;;;;1.30;100.00;100004.06;4994635;28;20627;-63
2021/01/12 12:04:38;;;;;;;5.63;4.00;;;;;;;1.32;100.00;100003.03;5007798;28;20061;-63
2021/01/12 12:07:22;;;;;;;4.53;2.67;;;;;;;1.34;100.00;100005.56;4993921;28;20053;-62
2021/01/12 12:10:07;;;;;;;3.78;3.03;;;;;;;1.33;100.00;99981.06;4993608;28;20053;-63
2021/01/12 12:12:51;;;;;;;3.55;2.83;;;;;;;1.37;100.00;99968.59;5007254;28;20101;-61
2021/01/12 12:15:35;;;;;;;6.72;2.63;;;;;;;1.38;100.00;99959.78;5007664;28;20057;-63
2021/01/12 12:18:19;;;;;;;3.65;2.72;;;;;;;1.38;100.00;99980.81;4994600;28;20050;-63
2021/01/12 12:21:03;;;;;;;7.30;3.78;;;;;;;1.36;100.00;99962.50;4993419;28;20523;-63
2021/01/12 12:23:47;;;;;;;4.85;2.95;;;;;;;1.41;100.00;99991.97;4993402;28;20049;-62
2021/01/12 12:26:31;;;;;;;3.00;2.00;;;;;;;1.40;100.00;99961.38;4994631;28;20057;-63
2021/01/12 12:29:16;;;;;;;4.07;2.45;;;;;;;1.36;100.00;99965.13;4994746;28;20069;-63
2021/01/12 12:32:04;;;;;;;;;;;;;;;1.35;100.00;99960.00;4993934;28;20081;-61
2021/01/12 12:34:48;;;;;;;3.20;2.40;;;;;;;1.32;100.00;99971.50;4993266;28;20072;-63
2021/01/12 12:37:32;;;;;;;4.53;2.65;;;;;;;1.30;100.00;99956.78;4994451;28;20069;-62
2021/01/12 12:40:19;;;;;;;3.40;2.65;;;;;;;1.26;100.00;99935.13;4998057;28;20453;-63
2021/01/12 12:43:03;;;;;;;4.32;3.00;;;;;;;1.31;100.00;99963.72;4998698;28;20486;-61
2021/01/12 12:45:46;;;;;;;;;;;;;;;1.32;100.00;99944.41;4999190;28;20495;-63
2021/01/12 12:48:32;;;;;;;3.83;2.83;;;;;;;1.35;100.00;99950.31;4994163;28;20025;-63